Time;durP1;ratioP1;P1;durP2;ratioP2;P2;SDS_P1;SDS_P2;PMS_P1;PMS_P2;Temp;Humidity;BMP_temperature;BMP_pressure;BME280_temperature;BME280_humidity;BME280_pressure;Samples;Min_cycle;Max_cycle;Signal;HPM_P1;HPM_P2
2023/01/07 00:01:29;;;;;;;7.32;5.32;;;;;;;11.44;100.00;101536.91;5290277;28;20437;-73
2023/01/07 00:04:02;;;;;;;6.80;4.88;;;;;;;11.32;100.00;101537.84;5285173;28;20032;-73
2023/01/07 00:06:35;;;;;;;;;;;;;;;11.95;100.00;101543.47;5289409;28;20031;-72
2023/01/07 00:09:11;;;;;;;5.90;5.20;;;;;;;11.49;100.00;101535.72;5290065;28;19920;-75
2023/01/07 00:11:43;;;;;;;6.78;5.75;;;;;;;11.37;100.00;101540.97;5289761;28;20366;-73
2023/01/07 00:14:14;;;;;;;7.30;5.50;;;;;;;11.30;100.00;101531.91;5291615;28;20111;-76
2023/01/07 00:16:46;;;;;;;7.25;5.35;;;;;;;11.34;100.00;101535.13;5293644;28;20573;-73
2023/01/07 00:19:17;;;;;;;9.25;5.72;;;;;;;11.36;100.00;101530.56;5282336;28;20025;-73
2023/01/07 00:21:49;;;;;;;6.60;5.82;;;;;;;11.36;100.00;101531.41;5274307;28;20036;-72
2023/01/07 00:24:20;;;;;;;8.20;5.90;;;;;;;11.38;100.00;101526.06;5284504;28;20115;-73
2023/01/07 00:26:51;;;;;;;8.68;6.57;;;;;;;11.42;100.00;101530.94;5283452;28;20016;-75
2023/01/07 00:29:22;;;;;;;8.77;6.90;;;;;;;11.37;100.00;101532.28;5285899;28;20039;-72
2023/01/07 00:31:54;;;;;;;9.23;7.72;;;;;;;11.32;100.00;101526.53;5282510;28;20078;-73
2023/01/07 00:34:25;;;;;;;8.15;7.15;;;;;;;11.36;100.00;101514.84;5264576;28;20134;-73
2023/01/07 00:37:48;;;;;;;10.38;7.63;;;;;;;11.33;100.00;101515.94;5286152;28;20440;-72
2023/01/07 00:39:48;;;;;;;8.30;7.40;;;;;;;11.28;100.00;101512.81;5287041;28;20025;-75
2023/01/07 00:45:09;;;;;;;10.82;8.50;;;;;;;11.26;100.00;101503.41;5279645;28;20036;-72
2023/01/07 00:47:41;;;;;;;9.95;8.60;;;;;;;11.26;100.00;101506.84;5284611;28;20474;-74
2023/01/07 00:50:12;;;;;;;13.75;8.77;;;;;;;11.38;100.00;101505.91;5267093;28;20048;-72
2023/01/07 00:52:43;;;;;;;10.18;7.80;;;;;;;11.32;100.00;101502.91;5282916;28;20089;-72
2023/01/07 00:55:15;;;;;;;9.68;8.27;;;;;;;11.29;100.00;101504.00;5284671;28;20695;-75
2023/01/07 00:57:46;;;;;;;12.55;9.20;;;;;;;11.30;100.00;101495.16;5291762;28;20600;-73
2023/01/07 01:00:19;;;;;;;11.15;8.55;;;;;;;11.22;100.00;101473.94;5283974;28;20028;-73
2023/01/07 01:02:51;;;;;;;;;;;;;;;11.80;100.00;101479.03;5290256;28;20032;-73
2023/01/07 01:05:22;;;;;;;11.43;7.93;;;;;;;11.26;100.00;101480.63;5285437;28;19916;-73
2023/01/07 01:07:54;;;;;;;11.95;7.70;;;;;;;11.18;100.00;101481.22;5269378;28;20101;-73
2023/01/07 01:10:26;;;;;;;8.50;7.53;;;;;;;11.16;100.00;101474.41;5286587;28;20023;-73
2023/01/07 01:12:58;;;;;;;8.43;7.22;;;;;;;11.22;100.00;101473.13;5287235;28;20488;-73
2023/01/07 01:15:29;;;;;;;7.85;6.43;;;;;;;11.26;100.00;101471.94;5285306;28;20024;-73
2023/01/07 01:18:01;;;;;;;8.45;7.05;;;;;;;11.24;100.00;101466.78;5282097;28;20021;-72
2023/01/07 01:20:33;;;;;;;8.73;7.05;;;;;;;11.09;100.00;101455.69;5280588;28;20035;-72
2023/01/07 01:23:05;;;;;;;9.02;7.28;;;;;;;11.19;100.00;101455.81;5282503;28;20454;-72
2023/01/07 01:25:36;;;;;;;7.30;6.22;;;;;;;11.10;100.00;101460.00;5284230;28;20492;-73
2023/01/07 01:28:07;;;;;;;7.88;7.07;;;;;;;11.14;100.00;101447.50;5278562;28;20028;-72
2023/01/07 01:30:39;;;;;;;9.40;6.95;;;;;;;11.06;100.00;101460.34;5284274;28;20382;-75
2023/01/07 01:33:10;;;;;;;11.52;7.13;;;;;;;10.99;100.00;101444.25;5275214;28;20040;-73
2023/01/07 01:35:41;;;;;;;7.35;6.13;;;;;;;11.06;100.00;101444.59;5285481;28;20115;-72
2023/01/07 01:38:12;;;;;;;6.97;6.28;;;;;;;11.07;100.00;101441.06;5284504;28;20024;-72
2023/01/07 01:40:44;;;;;;;8.80;6.57;;;;;;;11.04;100.00;101446.53;5321913;22;20100;-73
2023/01/07 01:43:34;;;;;;;7.07;5.50;;;;;;;11.17;100.00;101444.59;5302319;28;20039;-73
2023/01/07 01:46:17;;;;;;;10.13;6.20;;;;;;;11.10;100.00;101452.13;5281448;28;20529;-73
2023/01/07 01:48:57;;;;;;;8.77;5.93;;;;;;;11.09;100.00;101450.44;5328965;27;20801;-73
2023/01/07 01:51:33;;;;;;;9.52;6.47;;;;;;;11.00;100.00;101453.78;5327650;27;20080;-73
2023/01/07 01:54:10;;;;;;;8.07;6.25;;;;;;;11.00;100.00;101453.78;5329799;27;20035;-73
2023/01/07 01:56:46;;;;;;;6.78;5.65;;;;;;;10.98;100.00;101452.22;5325478;27;20456;-73
2023/01/07 01:59:23;;;;;;;8.60;6.05;;;;;;;10.99;100.00;101448.69;5313331;27;20033;-73
2023/01/07 02:01:55;;;;;;;8.50;5.93;;;;;;;10.92;100.00;101457.00;5330588;27;20065;-73
2023/01/07 02:04:28;;;;;;;6.57;5.25;;;;;;;10.93;100.00;101453.41;5328659;27;20479;-73
2023/01/07 02:07:05;;;;;;;8.73;6.47;;;;;;;11.03;100.00;101460.59;5328774;27;20028;-73
2023/01/07 02:09:37;;;;;;;6.20;5.20;;;;;;;10.91;100.00;101454.47;5326790;27;20046;-73
2023/01/07 02:12:34;;;;;;;6.72;5.80;;;;;;;11.14;100.00;101455.34;5317642;27;20031;-72
2023/01/07 02:15:19;;;;;;;9.50;5.90;;;;;;;11.05;100.00;101456.06;5328860;27;20321;-72
2023/01/07 02:18:09;;;;;;;7.10;5.43;;;;;;;11.16;100.00;101453.44;5324877;27;20468;-73
2023/01/07 02:21:03;;;;;;;8.85;5.20;;;;;;;11.14;100.00;101447.50;5326167;27;20123;-73
2023/01/07 02:24:01;;;;;;;10.43;5.53;;;;;;;11.11;100.00;101443.31;5326961;27;20480;-73
2023/01/07 02:26:42;;;;;;;8.68;5.50;;;;;;;11.00;100.00;101453.78;5330257;27;20024;-73
2023/01/07 02:29:29;;;;;;;7.68;5.03;;;;;;;11.02;100.00;101438.75;5308249;27;20027;-73
2023/01/07 02:32:39;;;;;;;5.05;4.35;;;;;;;11.08;100.00;101440.91;5327605;27;20034;-72
2023/01/07 02:35:29;;;;;;;6.63;4.85;;;;;;;11.03;100.00;101439.63;5326725;27;20054;-72
2023/01/07 02:38:18;;;;;;;7.07;5.07;;;;;;;10.92;100.00;101438.66;5328311;27;20019;-72
2023/01/07 02:41:05;;;;;;;7.78;5.25;;;;;;;11.04;100.00;101436.88;5327943;27;20521;-73
2023/01/07 02:43:50;;;;;;;6.47;4.57;;;;;;;10.99;100.00;101433.78;5329419;27;20051;-73
2023/01/07 02:46:33;;;;;;;7.28;5.20;;;;;;;11.05;100.00;101437.69;5324207;27;20498;-73
2023/01/07 02:49:10;;;;;;;9.77;5.22;;;;;;;10.93;100.00;101429.00;5300405;27;20031;-73
2023/01/07 02:51:43;;;;;;;6.38;4.43;;;;;;;10.88;100.00;101428.53;5328943;27;20368;-72
2023/01/07 02:54:22;;;;;;;5.43;4.43;;;;;;;11.05;100.00;101432.44;5326923;27;20109;-73
2023/01/07 02:57:47;;;;;;;7.07;4.47;;;;;;;11.23;100.00;101417.91;5330489;27;20023;-73
2023/01/07 03:00:43;;;;;;;5.47;4.18;;;;;;;11.08;100.00;101427.81;5203436;28;20220;-73
2023/01/07 03:03:34;;;;;;;7.47;4.07;;;;;;;11.15;100.00;101423.75;5204912;28;20124;-73
2023/01/07 03:06:30;;;;;;;5.70;4.47;;;;;;;11.11;100.00;101424.13;5321414;27;20698;-73
2023/01/07 03:09:01;;;;;;;8.02;4.38;;;;;;;11.11;100.00;101417.09;5328845;27;20266;-73
2023/01/07 03:11:59;;;;;;;6.93;4.03;;;;;;;11.35;100.00;101409.06;5324750;27;20100;-73
2023/01/07 03:14:47;;;;;;;6.50;4.00;;;;;;;11.29;100.00;101403.47;5329071;27;20023;-73
2023/01/07 03:17:31;;;;;;;6.78;3.58;;;;;;;11.17;100.00;101387.78;5326360;27;20043;-73
2023/01/07 03:20:04;;;;;;;5.22;3.13;;;;;;;11.15;100.00;101401.94;5324961;27;20042;-73
2023/01/07 03:22:37;;;;;;;;;;;;;;;11.67;100.00;101392.56;5324336;27;20035;-73
2023/01/07 03:25:12;;;;;;;5.10;3.37;;;;;;;11.29;100.00;101383.34;5310309;27;20036;-73
2023/01/07 03:27:45;;;;;;;6.05;3.70;;;;;;;11.31;100.00;101386.66;5325590;27;20028;-73
2023/01/07 03:30:18;;;;;;;5.80;3.60;;;;;;;11.16;100.00;101390.50;5326077;27;20039;-73
2023/01/07 03:33:06;;;;;;;5.75;2.95;;;;;;;11.30;100.00;101381.53;5328792;27;20035;-73
2023/01/07 03:35:41;;;;;;;5.75;3.20;;;;;;;11.15;100.00;101381.78;5323235;27;20027;-73
2023/01/07 03:38:15;;;;;;;6.43;3.28;;;;;;;11.12;100.00;101386.44;5324441;27;20023;-73
2023/01/07 03:40:47;;;;;;;5.82;3.40;;;;;;;11.17;100.00;101382.53;5327512;28;20070;-73
2023/01/07 03:43:20;;;;;;;5.45;2.90;;;;;;;11.20;100.00;101376.19;5309573;28;20040;-72
2023/01/07 03:45:53;;;;;;;4.25;2.97;;;;;;;11.20;100.00;101374.38;5325256;28;20034;-73
2023/01/07 03:48:24;;;;;;;3.92;2.80;;;;;;;11.21;100.00;101367.34;5326586;28;20023;-73
2023/01/07 03:50:56;;;;;;;9.93;3.08;;;;;;;11.27;100.00;101364.25;5327083;28;20019;-73
2023/01/07 03:53:27;;;;;;;7.70;2.95;;;;;;;11.23;100.00;101359.38;5324724;28;20552;-73
2023/01/07 03:55:58;;;;;;;7.88;3.65;;;;;;;11.28;100.00;101362.47;5327763;28;20483;-73
2023/01/07 03:58:29;;;;;;;5.30;3.03;;;;;;;11.29;100.00;101364.13;5327313;28;20041;-73
2023/01/07 04:01:01;;;;;;;4.35;2.72;;;;;;;11.18;100.00;101355.34;5314654;28;20039;-73
2023/01/07 04:03:32;;;;;;;4.60;2.80;;;;;;;11.20;100.00;101352.56;5322297;28;20031;-73
2023/01/07 04:06:03;;;;;;;5.25;2.92;;;;;;;11.29;100.00;101354.50;5326981;28;20124;-73
2023/01/07 04:08:36;;;;;;;5.85;2.67;;;;;;;11.29;100.00;101348.38;5327120;28;20115;-73
2023/01/07 04:11:07;;;;;;;3.70;2.63;;;;;;;11.28;100.00;101347.56;5326619;28;20084;-73
2023/01/07 04:13:38;;;;;;;4.70;2.80;;;;;;;11.29;100.00;101338.75;5329100;28;20500;-73
2023/01/07 04:16:09;;;;;;;5.55;2.83;;;;;;;11.32;100.00;101328.00;5327554;28;20464;-73
2023/01/07 04:18:41;;;;;;;3.38;2.53;;;;;;;11.31;100.00;101328.13;5309331;28;20475;-72
2023/01/07 04:21:12;;;;;;;4.35;2.60;;;;;;;11.30;100.00;101327.28;5328197;28;20031;-73
2023/01/07 04:23:43;;;;;;;5.05;2.40;;;;;;;11.29;100.00;101319.53;5325761;28;20180;-73
2023/01/07 04:26:14;;;;;;;4.35;2.60;;;;;;;11.35;100.00;101319.88;5325094;28;20031;-73
2023/01/07 04:28:46;;;;;;;4.57;2.60;;;;;;;11.26;100.00;101315.38;5323953;28;20040;-73
2023/01/07 04:31:17;;;;;;;5.15;2.45;;;;;;;11.28;100.00;101310.00;5326513;28;20047;-73
2023/01/07 04:33:48;;;;;;;4.55;2.63;;;;;;;11.20;100.00;101297.50;5325052;28;20020;-72
2023/01/07 04:36:20;;;;;;;4.53;2.83;;;;;;;11.24;100.00;101305.97;5327031;28;20028;-73
2023/01/07 04:38:51;;;;;;;5.43;2.58;;;;;;;11.23;100.00;101305.13;5325976;28;20024;-73
2023/01/07 04:41:22;;;;;;;4.60;2.80;;;;;;;11.19;100.00;101298.47;5326661;28;20035;-73
2023/01/07 04:43:53;;;;;;;4.40;2.58;;;;;;;11.18;100.00;101294.19;5310731;28;20054;-73
2023/01/07 04:46:25;;;;;;;4.20;2.60;;;;;;;11.11;100.00;101291.22;5327770;27;20026;-73
2023/01/07 04:48:56;;;;;;;6.13;2.75;;;;;;;11.14;100.00;101287.53;5331320;27;20042;-73
2023/01/07 04:51:27;;;;;;;6.20;2.80;;;;;;;11.15;100.00;101289.19;5330164;27;20119;-72
2023/01/07 04:53:59;;;;;;;4.25;2.30;;;;;;;11.16;100.00;101290.84;5328474;27;20031;-73
2023/01/07 04:56:30;;;;;;;4.63;2.70;;;;;;;11.13;100.00;101280.59;5322596;27;20027;-73
2023/01/07 04:59:01;;;;;;;3.45;2.10;;;;;;;11.08;100.00;101277.50;5329506;27;20026;-73
2023/01/07 05:01:32;;;;;;;3.80;2.08;;;;;;;11.12;100.00;101281.56;5323036;27;20032;-72
2023/01/07 05:04:04;;;;;;;7.57;2.65;;;;;;;11.10;100.00;101272.97;5329684;27;20098;-73
2023/01/07 05:06:35;;;;;;;5.55;2.85;;;;;;;11.13;100.00;101280.59;5330302;27;20568;-73
2023/01/07 05:09:06;;;;;;;4.35;2.63;;;;;;;11.07;100.00;101273.22;5329077;27;20545;-73
2023/01/07 05:11:37;;;;;;;3.78;2.10;;;;;;;11.10;100.00;101276.44;5330403;27;20139;-73
2023/01/07 05:14:10;;;;;;;3.65;2.17;;;;;;;11.13;100.00;101277.97;5331367;27;20031;-73
2023/01/07 05:16:42;;;;;;;4.70;2.08;;;;;;;11.02;100.00;101267.50;5330181;27;20028;-73
2023/01/07 05:19:13;;;;;;;5.47;2.15;;;;;;;11.05;100.00;101272.50;5331760;27;20016;-73
2023/01/07 05:21:44;;;;;;;6.80;2.33;;;;;;;10.99;100.00;101268.59;5328705;27;20030;-73
2023/01/07 05:24:16;;;;;;;5.15;2.30;;;;;;;11.03;100.00;101262.16;5322684;27;20043;-73
2023/01/07 05:26:47;;;;;;;6.22;2.10;;;;;;;11.05;100.00;101265.47;5329977;27;21513;-73
2023/01/07 05:29:18;;;;;;;5.15;2.40;;;;;;;10.91;100.00;101250.00;5332125;27;20318;-72
2023/01/07 05:31:49;;;;;;;4.40;1.95;;;;;;;10.91;100.00;101245.63;5329094;27;20107;-73
2023/01/07 05:34:21;;;;;;;6.50;2.25;;;;;;;10.97;100.00;101262.63;5330073;27;20123;-73
2023/01/07 05:36:52;;;;;;;4.40;2.20;;;;;;;11.04;100.00;101253.31;5328947;27;20016;-73
2023/01/07 05:39:23;;;;;;;3.45;2.00;;;;;;;11.01;100.00;101260.59;5320070;27;20034;-73
2023/01/07 05:41:54;;;;;;;5.78;1.98;;;;;;;10.99;100.00;101265.16;5325177;27;20047;-73
2023/01/07 05:44:26;;;;;;;4.43;2.03;;;;;;;11.02;100.00;101259.63;5327490;27;20038;-73
2023/01/07 05:46:57;;;;;;;3.90;1.90;;;;;;;11.05;100.00;101256.78;5327594;27;20058;-73
2023/01/07 05:49:28;;;;;;;5.05;1.90;;;;;;;11.12;100.00;101263.19;5326869;27;20499;-73
2023/01/07 05:51:59;;;;;;;3.97;1.80;;;;;;;11.00;100.00;101251.09;5326260;27;20393;-73
2023/01/07 05:54:31;;;;;;;4.40;1.75;;;;;;;11.07;100.00;101233.91;5326980;27;20023;-73
2023/01/07 05:57:02;;;;;;;4.30;1.83;;;;;;;11.20;100.00;101245.06;5324435;27;20023;-73
2023/01/07 05:59:34;;;;;;;4.32;1.73;;;;;;;11.16;100.00;101246.25;5330897;27;20034;-73
2023/01/07 06:02:05;;;;;;;3.38;1.70;;;;;;;11.13;100.00;101246.50;5329192;27;20027;-73
2023/01/07 06:04:36;;;;;;;2.83;1.85;;;;;;;11.10;100.00;101246.75;5321189;27;20117;-73
2023/01/07 06:07:07;;;;;;;1.95;1.40;;;;;;;11.08;100.00;101239.00;5327688;27;20147;-73
2023/01/07 06:09:39;;;;;;;3.80;1.70;;;;;;;11.04;100.00;101226.28;5326615;27;20042;-73
2023/01/07 06:12:10;;;;;;;3.85;1.80;;;;;;;11.11;100.00;101244.00;5329412;27;20027;-73
2023/01/07 06:14:41;;;;;;;3.45;1.40;;;;;;;11.08;100.00;101241.63;5329301;27;20018;-73
2023/01/07 06:17:13;;;;;;;4.22;1.42;;;;;;;11.10;100.00;101226.63;5330916;27;20080;-73
2023/01/07 06:19:44;;;;;;;4.05;1.58;;;;;;;11.15;100.00;101227.06;5326693;27;20023;-73
2023/01/07 06:22:15;;;;;;;2.78;1.40;;;;;;;11.11;100.00;101222.22;5329131;27;20042;-73
2023/01/07 06:24:46;;;;;;;3.00;1.40;;;;;;;11.16;100.00;101226.09;5319986;27;20031;-73
2023/01/07 06:27:18;;;;;;;5.80;1.50;;;;;;;11.14;100.00;101224.59;5327059;27;20027;-73
2023/01/07 06:29:49;;;;;;;2.42;1.50;;;;;;;11.18;100.00;101212.88;5323394;27;20028;-73
2023/01/07 06:32:20;;;;;;;1.80;1.30;;;;;;;11.10;100.00;101208.28;5326835;27;20023;-73
2023/01/07 06:34:52;;;;;;;2.28;1.30;;;;;;;11.10;100.00;101210.03;5328039;27;20030;-73
2023/01/07 06:37:23;;;;;;;3.38;1.27;;;;;;;11.12;100.00;101200.25;5326446;27;20077;-73
2023/01/07 06:39:54;;;;;;;2.15;1.40;;;;;;;11.10;100.00;101195.16;5329876;27;20479;-73
2023/01/07 06:42:26;;;;;;;1.90;1.30;;;;;;;11.17;100.00;101203.34;5327891;27;20041;-73
2023/01/07 06:44:57;;;;;;;2.58;1.40;;;;;;;11.17;100.00;101195.47;5328086;27;20403;-73
2023/01/07 06:47:28;;;;;;;1.90;1.13;;;;;;;11.24;100.00;101201.06;5328132;27;20047;-73
2023/01/07 06:50:00;;;;;;;2.28;1.30;;;;;;;11.20;100.00;101198.69;5324692;27;20031;-73
2023/01/07 06:52:32;;;;;;;2.47;1.30;;;;;;;11.18;100.00;101197.16;5327363;27;20034;-73
2023/01/07 06:55:03;;;;;;;1.77;1.08;;;;;;;11.24;100.00;101196.63;5327329;27;20034;-73
2023/01/07 06:57:35;;;;;;;4.03;1.35;;;;;;;11.21;100.00;101186.38;5329013;27;20106;-73
2023/01/07 07:00:07;;;;;;;3.80;1.20;;;;;;;11.22;100.00;101188.06;5326303;27;20073;-73
2023/01/07 07:02:38;;;;;;;2.17;1.10;;;;;;;11.20;100.00;101198.69;5318395;27;20095;-73
2023/01/07 07:05:10;;;;;;;2.33;1.20;;;;;;;11.20;100.00;101189.97;5324941;27;20130;-73
2023/01/07 07:07:42;;;;;;;1.88;1.00;;;;;;;11.18;100.00;101187.50;5324558;27;20020;-74
2023/01/07 07:10:13;;;;;;;1.83;0.98;;;;;;;11.22;100.00;101180.22;5326008;27;20029;-74
2023/01/07 07:12:45;;;;;;;2.00;1.02;;;;;;;11.23;100.00;101187.09;5320169;27;20374;-74
2023/01/07 07:15:16;;;;;;;1.75;1.10;;;;;;;11.26;100.00;101173.75;5330223;27;20027;-74
2023/01/07 07:17:47;;;;;;;2.60;1.10;;;;;;;11.28;100.00;101176.22;5327184;27;20015;-74
2023/01/07 07:20:19;;;;;;;4.28;1.00;;;;;;;11.27;100.00;101177.19;5325265;27;20028;-73
2023/01/07 07:22:50;;;;;;;1.80;1.00;;;;;;;11.27;100.00;101169.34;5328972;27;20027;-73
2023/01/07 07:25:21;;;;;;;3.45;1.27;;;;;;;11.03;100.00;101166.94;5326785;27;20497;-73
2023/01/07 07:27:53;;;;;;;3.30;1.63;;;;;;;11.01;100.00;101159.19;5318175;27;20575;-73
2023/01/07 07:30:25;;;;;;;2.13;1.10;;;;;;;10.92;100.00;101150.28;5323558;27;20051;-74
2023/01/07 07:33:01;;;;;;;2.53;1.35;;;;;;;11.17;100.00;101158.75;5325880;27;20598;-73
2023/01/07 07:35:33;;;;;;;2.08;1.25;;;;;;;11.08;100.00;101168.22;5320681;27;20030;-73
2023/01/07 07:38:05;;;;;;;1.83;1.00;;;;;;;11.00;100.00;101167.19;5321205;27;20502;-74
2023/01/07 07:40:36;;;;;;;3.60;1.20;;;;;;;11.03;100.00;101153.84;5326729;22;20875;-75
2023/01/07 07:43:07;;;;;;;2.03;1.15;;;;;;;11.12;100.00;101164.38;5282140;28;20393;-72
2023/01/07 07:45:40;;;;;;;1.77;1.10;;;;;;;11.09;100.00;101155.94;5279151;28;20040;-72
2023/01/07 07:48:13;;;;;;;1.75;1.02;;;;;;;11.15;100.00;101153.66;5275414;28;20500;-75
2023/01/07 07:50:49;;;;;;;3.65;1.10;;;;;;;11.26;100.00;101147.53;5287066;28;20032;-75
2023/01/07 07:53:20;;;;;;;3.67;1.73;;;;;;;11.15;100.00;101135.28;5272901;28;20096;-76
2023/01/07 07:55:52;;;;;;;2.15;1.10;;;;;;;11.15;100.00;101145.78;5281929;28;20025;-75
2023/01/07 07:58:23;;;;;;;3.30;1.67;;;;;;;11.03;100.00;101151.22;5280046;28;20029;-76
2023/01/07 08:00:54;;;;;;;1.65;1.05;;;;;;;11.05;100.00;101138.78;5278500;28;20048;-76
2023/01/07 08:03:26;;;;;;;3.70;1.30;;;;;;;11.04;100.00;101132.72;5276518;28;20404;-75
2023/01/07 08:05:58;;;;;;;4.00;1.10;;;;;;;11.10;100.00;101140.09;5278842;28;20032;-76
2023/01/07 08:08:29;;;;;;;1.88;1.23;;;;;;;11.10;100.00;101129.59;5282755;28;20035;-75
2023/01/07 08:11:01;;;;;;;3.15;1.20;;;;;;;11.10;100.00;101129.59;5276836;28;20025;-75
2023/01/07 08:13:33;;;;;;;4.27;1.13;;;;;;;11.14;100.00;101131.00;5287277;28;20035;-76
2023/01/07 08:16:04;;;;;;;2.10;1.00;;;;;;;11.14;100.00;101133.63;5279576;28;20051;-74
2023/01/07 08:18:36;;;;;;;2.60;1.10;;;;;;;11.20;100.00;101132.28;5278570;28;20051;-75
2023/01/07 08:21:07;;;;;;;3.08;1.08;;;;;;;11.09;100.00;101129.72;5283342;28;20028;-74
2023/01/07 08:23:38;;;;;;;2.25;1.10;;;;;;;11.10;100.00;101128.75;5289629;28;20020;-74
2023/01/07 08:26:10;;;;;;;2.25;1.10;;;;;;;11.16;100.00;101121.22;5279380;28;20029;-76
2023/01/07 08:28:41;;;;;;;2.85;1.20;;;;;;;11.12;100.00;101122.44;5286039;28;20024;-75
2023/01/07 08:31:12;;;;;;;2.80;1.27;;;;;;;11.17;100.00;101116.78;5285638;28;20028;-75
2023/01/07 08:33:44;;;;;;;1.80;1.00;;;;;;;11.16;100.00;101105.47;5277789;28;20115;-74
2023/01/07 08:36:15;;;;;;;2.13;1.23;;;;;;;11.18;100.00;101114.06;5285981;28;20493;-75
2023/01/07 08:38:50;;;;;;;2.25;1.10;;;;;;;11.29;100.00;101115.81;5289263;28;20020;-73
2023/01/07 08:41:23;;;;;;;2.47;1.17;;;;;;;11.21;100.00;101102.47;5286829;28;20051;-73
2023/01/07 08:43:54;;;;;;;1.90;0.88;;;;;;;11.21;100.00;101102.47;5275024;28;20144;-74
2023/01/07 08:46:26;;;;;;;3.75;1.27;;;;;;;11.24;100.00;101096.97;5284840;28;20559;-75
2023/01/07 08:48:57;;;;;;;4.63;1.63;;;;;;;11.37;100.00;101102.88;5283710;28;20029;-75
2023/01/07 08:51:28;;;;;;;1.92;1.00;;;;;;;11.33;100.00;101101.47;5283434;28;20028;-74
2023/01/07 08:53:59;;;;;;;1.73;0.80;;;;;;;11.43;100.00;101096.25;5284812;28;20029;-74
2023/01/07 08:56:32;;;;;;;2.72;1.08;;;;;;;11.41;100.00;101087.69;5280750;28;20025;-75
2023/01/07 08:59:03;;;;;;;2.47;1.00;;;;;;;11.42;100.00;101090.19;5284515;28;20102;-75
2023/01/07 09:01:34;;;;;;;2.78;0.98;;;;;;;11.47;100.00;101100.28;5287253;28;20016;-75
2023/01/07 09:04:06;;;;;;;1.80;1.02;;;;;;;11.53;100.00;101105.03;5288499;28;20028;-75
2023/01/07 09:06:37;;;;;;;2.92;1.27;;;;;;;11.47;100.00;101094.22;5283670;28;20414;-75
2023/01/07 09:09:09;;;;;;;1.42;0.90;;;;;;;11.48;100.00;101090.63;5277808;28;20541;-75
2023/01/07 09:11:40;;;;;;;2.05;0.85;;;;;;;11.45;100.00;101079.44;5288713;28;20051;-75
2023/01/07 09:14:11;;;;;;;2.55;0.98;;;;;;;11.52;100.00;101082.38;5281837;28;20384;-75
2023/01/07 09:16:43;;;;;;;2.70;1.17;;;;;;;11.48;100.00;101082.75;5284919;28;20412;-75
2023/01/07 09:19:14;;;;;;;2.40;0.90;;;;;;;11.49;100.00;101081.81;5289248;28;20102;-75
2023/01/07 09:21:46;;;;;;;2.03;1.05;;;;;;;11.48;100.00;101070.47;5284606;28;20040;-75
2023/01/07 09:24:17;;;;;;;2.65;1.00;;;;;;;11.55;100.00;101068.16;5284247;28;20029;-75
2023/01/07 09:26:48;;;;;;;3.13;1.00;;;;;;;11.56;100.00;101069.84;5284651;28;20039;-75
2023/01/07 09:29:20;;;;;;;1.35;0.80;;;;;;;11.57;100.00;101071.47;5285592;28;20039;-75
2023/01/07 09:31:51;;;;;;;2.13;0.88;;;;;;;11.60;100.00;101066.81;5279607;28;20074;-75
2023/01/07 09:34:22;;;;;;;1.38;0.75;;;;;;;11.64;100.00;101068.22;5283227;28;20097;-75
2023/01/07 09:36:53;;;;;;;1.42;0.90;;;;;;;11.66;100.00;101057.56;5281671;28;20074;-73
2023/01/07 09:39:25;;;;;;;1.30;0.65;;;;;;;11.70;100.00;101061.59;5281509;28;20400;-75
2023/01/07 09:42:11;;;;;;;1.80;0.80;;;;;;;11.77;100.00;101046.97;5279524;28;20500;-75
2023/01/07 09:44:52;;;;;;;2.35;0.90;;;;;;;11.81;100.00;101045.75;5282180;28;20447;-75
2023/01/07 09:47:28;;;;;;;3.00;1.15;;;;;;;11.80;100.00;101045.88;5284519;28;20081;-75
2023/01/07 09:50:10;;;;;;;1.40;0.80;;;;;;;11.83;100.00;101035.13;5282570;28;20035;-75
2023/01/07 09:52:47;;;;;;;1.60;0.80;;;;;;;11.93;100.00;101031.59;5280543;28;20659;-75
2023/01/07 09:55:27;;;;;;;1.80;0.90;;;;;;;11.95;100.00;101036.69;5286369;28;20039;-75
2023/01/07 09:57:58;;;;;;;2.10;0.98;;;;;;;11.87;100.00;101029.50;5280135;28;20369;-75
2023/01/07 10:00:32;;;;;;;1.77;0.93;;;;;;;11.97;100.00;101026.06;5279067;28;20039;-73
2023/01/07 10:03:21;;;;;;;1.40;0.80;;;;;;;12.11;100.00;101018.63;5280489;28;20035;-75
2023/01/07 10:06:21;;;;;;;2.53;0.90;;;;;;;12.18;100.00;101018.91;5281982;28;20115;-74
2023/01/07 10:09:22;;;;;;;1.50;0.63;;;;;;;12.15;100.00;101008.69;5284264;28;20028;-73
2023/01/07 10:12:04;;;;;;;2.72;0.90;;;;;;;12.00;100.00;101002.97;5280197;28;20039;-75
2023/01/07 10:14:53;;;;;;;2.60;1.10;;;;;;;12.08;100.00;100994.44;5281286;28;20032;-75
2023/01/07 10:17:25;;;;;;;2.95;0.90;;;;;;;12.05;100.00;100987.66;5282951;28;20040;-72
2023/01/07 10:20:07;;;;;;;1.38;0.80;;;;;;;12.11;100.00;100971.34;5262730;28;20036;-75
2023/01/07 10:22:49;;;;;;;1.75;0.80;;;;;;;12.21;100.00;100981.06;5280222;28;20020;-73
2023/01/07 10:25:31;;;;;;;1.98;0.80;;;;;;;12.24;100.00;100959.78;5280832;28;20028;-75
2023/01/07 10:28:08;;;;;;;1.45;0.77;;;;;;;12.21;100.00;100966.13;5281333;28;20025;-75
2023/01/07 10:30:43;;;;;;;2.40;0.82;;;;;;;12.25;100.00;100964.06;5277841;28;20135;-74
2023/01/07 10:33:25;;;;;;;1.98;0.60;;;;;;;12.31;100.00;100956.44;5285414;28;20095;-75
2023/01/07 10:36:21;;;;;;;2.72;1.00;;;;;;;12.54;100.00;100943.00;5263074;28;20496;-75
2023/01/07 10:39:14;;;;;;;3.13;1.00;;;;;;;12.38;100.00;100940.94;5278313;28;20048;-75
2023/01/07 10:42:08;;;;;;;2.45;1.02;;;;;;;12.38;100.00;100941.75;5273903;28;20071;-75
2023/01/07 10:44:43;;;;;;;1.80;0.90;;;;;;;12.39;100.00;100935.56;5281015;28;20036;-76
2023/01/07 10:47:41;;;;;;;2.30;1.17;;;;;;;12.48;100.00;100940.94;5278970;28;20509;-74
2023/01/07 10:50:41;;;;;;;2.65;0.68;;;;;;;12.51;100.00;100923.09;5280218;28;20626;-75
2023/01/07 10:53:39;;;;;;;3.10;0.77;;;;;;;12.54;100.00;100920.19;5285717;28;20025;-75
2023/01/07 10:56:19;;;;;;;3.25;0.80;;;;;;;12.43;100.00;100909.00;5284184;28;20042;-75
2023/01/07 10:58:51;;;;;;;2.17;0.80;;;;;;;12.44;100.00;100906.25;5290000;28;20614;-73
2023/01/07 11:01:38;;;;;;;2.33;0.90;;;;;;;12.53;100.00;100904.56;5282560;28;20032;-75
2023/01/07 11:04:14;;;;;;;2.53;0.80;;;;;;;12.42;100.00;100897.66;5281424;28;20024;-75
2023/01/07 11:07:02;;;;;;;2.20;0.80;;;;;;;12.48;100.00;100904.16;5287920;28;20470;-75
2023/01/07 11:09:46;;;;;;;1.67;0.80;;;;;;;12.61;100.00;100904.66;5283753;28;20039;-75
2023/01/07 11:12:20;;;;;;;;;;;;;;;13.00;100.00;100894.88;5279307;28;20564;-75
2023/01/07 11:14:55;;;;;;;1.90;0.90;;;;;;;12.41;100.00;100882.88;5281398;28;19920;-74
2023/01/07 11:17:36;;;;;;;1.45;0.80;;;;;;;12.55;100.00;100889.47;5281583;28;20032;-75
2023/01/07 11:20:08;;;;;;;1.27;0.80;;;;;;;12.53;100.00;100878.28;5281704;28;20362;-74
2023/01/07 11:22:39;;;;;;;1.50;0.90;;;;;;;12.46;100.00;100869.28;5282258;28;20386;-75
2023/01/07 11:25:29;;;;;;;2.30;1.17;;;;;;;12.69;100.00;100873.28;5285536;28;20040;-74
2023/01/07 11:28:02;;;;;;;1.50;0.80;;;;;;;12.57;100.00;100859.44;5277971;28;20377;-74
2023/01/07 11:30:33;;;;;;;2.08;0.80;;;;;;;12.57;100.00;100848.09;5280032;28;20064;-75
2023/01/07 11:33:06;;;;;;;3.55;0.90;;;;;;;12.55;100.00;100835.13;5284110;28;20494;-75
2023/01/07 11:35:43;;;;;;;1.60;0.77;;;;;;;12.63;100.00;100837.03;5281873;28;20031;-75
2023/01/07 11:38:26;;;;;;;1.75;0.90;;;;;;;12.77;100.00;100841.84;5282295;28;20099;-75
2023/01/07 11:41:00;;;;;;;1.73;0.88;;;;;;;12.69;100.00;100828.59;5281137;28;20044;-73
2023/01/07 11:43:32;;;;;;;;;;;;;;;13.21;100.00;100825.41;5282356;28;20160;-75
2023/01/07 11:46:11;;;;;;;2.67;0.90;;;;;;;12.71;100.00;100817.91;5281853;28;19923;-76
2023/01/07 11:48:56;;;;;;;2.58;1.05;;;;;;;12.77;100.00;100815.53;5282201;28;20036;-74
2023/01/07 11:51:38;;;;;;;2.20;1.15;;;;;;;12.76;100.00;100810.41;5270622;28;20040;-75
2023/01/07 11:54:23;;;;;;;2.15;1.17;;;;;;;12.81;100.00;100798.50;5273869;28;20525;-75
2023/01/07 11:57:12;;;;;;;1.83;1.10;;;;;;;12.79;100.00;100789.91;5284518;28;20062;-76